createdAt,value
2017-09-19T00:01:18.395Z,16.10
2017-09-19T00:03:47.420Z,15.13
2017-09-19T00:06:15.666Z,16.20
2017-09-19T00:08:44.690Z,18.20
2017-09-19T00:11:12.940Z,18.47
2017-09-19T00:13:41.194Z,18.27
2017-09-19T00:16:10.203Z,18.83
2017-09-19T00:18:39.215Z,20.43
2017-09-19T00:21:07.465Z,17.60
2017-09-19T00:23:36.478Z,18.03
2017-09-19T00:26:04.736Z,12.70
2017-09-19T00:28:33.762Z,14.00
2017-09-19T00:31:02.013Z,16.23
2017-09-19T00:33:31.873Z,15.60
2017-09-19T00:36:00.127Z,15.50
2017-09-19T00:38:28.381Z,13.53
2017-09-19T00:40:56.627Z,11.93
2017-09-19T00:43:25.648Z,14.27
2017-09-19T00:45:53.895Z,16.80
2017-09-19T00:48:22.916Z,17.53
2017-09-19T00:50:51.165Z,18.43
2017-09-19T00:53:20.187Z,19.60
2017-09-19T00:55:48.438Z,12.03
2017-09-19T00:58:17.454Z,14.37
2017-09-19T01:00:45.698Z,15.37
2017-09-19T01:03:13.959Z,11.87
2017-09-19T01:05:42.200Z,7.97
2017-09-19T01:08:10.448Z,5.83
2017-09-19T01:10:38.690Z,6.77
2017-09-19T01:13:06.937Z,5.83
2017-09-19T01:15:35.183Z,5.10
2017-09-19T01:18:03.435Z,6.17
2017-09-19T01:20:32.443Z,6.07
2017-09-19T01:23:00.693Z,7.00
2017-09-19T01:25:29.706Z,9.23
2017-09-19T01:27:58.719Z,6.17
2017-09-19T01:30:26.973Z,6.97
2017-09-19T01:32:55.225Z,6.87
2017-09-19T01:35:23.467Z,7.43
2017-09-19T01:37:51.718Z,6.90
2017-09-19T01:40:19.962Z,6.47
2017-09-19T01:42:48.980Z,5.83
2017-09-19T01:45:17.220Z,7.10
2017-09-19T01:47:46.252Z,10.50
2017-09-19T01:50:14.496Z,13.30
2017-09-19T01:52:42.735Z,12.80
2017-09-19T01:55:10.995Z,15.57
2017-09-19T01:57:39.247Z,18.17
2017-09-19T02:00:07.525Z,18.27
2017-09-19T02:02:35.770Z,16.77
2017-09-19T02:05:04.796Z,16.23
2017-09-19T02:07:33.035Z,16.97
2017-09-19T02:10:01.292Z,19.70
2017-09-19T02:12:29.534Z,17.50
2017-09-19T02:14:57.787Z,15.93
2017-09-19T02:17:26.039Z,11.00
2017-09-19T02:19:55.058Z,9.60
2017-09-19T02:22:23.303Z,10.83
2017-09-19T02:24:51.619Z,12.73
2017-09-19T02:27:19.863Z,12.50
2017-09-19T02:29:48.894Z,12.90
2017-09-19T02:32:17.148Z,10.27
2017-09-19T02:34:46.164Z,10.97
2017-09-19T02:37:14.402Z,9.83
2017-09-19T02:39:43.428Z,12.13
2017-09-19T02:42:11.679Z,12.30
2017-09-19T02:44:40.684Z,7.53
2017-09-19T02:47:08.921Z,7.70
2017-09-19T02:49:37.180Z,10.30
2017-09-19T02:52:05.426Z,7.73
2017-09-19T02:54:33.678Z,8.07
2017-09-19T02:57:01.922Z,6.90
2017-09-19T02:59:30.174Z,5.93
2017-09-19T03:01:58.420Z,5.70
2017-09-19T03:04:26.670Z,7.73
2017-09-19T03:06:55.676Z,7.27
2017-09-19T03:09:23.926Z,6.53
2017-09-19T03:11:52.940Z,5.30
2017-09-19T03:14:21.962Z,5.53
2017-09-19T03:16:50.193Z,5.77
2017-09-19T03:19:19.211Z,5.40
2017-09-19T03:21:47.451Z,7.37
2017-09-19T03:24:15.695Z,4.73
2017-09-19T03:26:43.938Z,5.47
2017-09-19T03:29:12.191Z,5.90
2017-09-19T03:31:41.194Z,7.10
2017-09-19T03:34:10.207Z,7.63
2017-09-19T03:36:38.447Z,7.20
2017-09-19T03:39:07.467Z,8.70
2017-09-19T03:41:35.710Z,9.77
2017-09-19T03:44:03.958Z,12.83
2017-09-19T03:46:32.203Z,12.10
2017-09-19T03:49:00.464Z,10.50
2017-09-19T03:51:28.708Z,12.67
2017-09-19T03:53:56.962Z,10.00
2017-09-19T03:56:25.214Z,10.23
2017-09-19T03:58:53.469Z,9.90
2017-09-19T04:01:21.718Z,10.10
2017-09-19T04:03:50.726Z,7.43
2017-09-19T04:06:18.978Z,8.53
2017-09-19T04:08:47.234Z,7.60
2017-09-19T04:11:15.471Z,8.20
2017-09-19T04:13:43.726Z,7.07
2017-09-19T04:16:11.970Z,7.30
2017-09-19T04:18:40.223Z,7.80
2017-09-19T04:21:08.463Z,7.03
2017-09-19T04:23:37.483Z,7.90
2017-09-19T04:26:05.722Z,7.33
2017-09-19T04:28:33.975Z,8.10
2017-09-19T04:31:02.214Z,7.57
2017-09-19T04:33:30.468Z,7.93
2017-09-19T04:35:58.708Z,7.57
2017-09-19T04:38:27.717Z,8.40
2017-09-19T04:40:55.968Z,7.80
2017-09-19T04:43:24.986Z,9.03
2017-09-19T04:45:53.240Z,8.37
2017-09-19T04:48:22.250Z,9.00
2017-09-19T04:50:50.499Z,8.53
2017-09-19T04:53:19.515Z,10.17
2017-09-19T04:55:48.543Z,9.07
2017-09-19T04:58:16.790Z,10.60
2017-09-19T05:00:45.043Z,9.80
2017-09-19T05:03:13.291Z,9.67
2017-09-19T05:05:41.548Z,10.67
2017-09-19T05:08:09.795Z,10.43
2017-09-19T05:10:38.047Z,11.60
2017-09-19T05:13:07.063Z,11.70
2017-09-19T05:15:35.314Z,11.70
2017-09-19T05:18:03.559Z,10.50
2017-09-19T05:20:31.819Z,11.07
2017-09-19T05:23:00.071Z,12.07
2017-09-19T05:25:28.338Z,14.20
2017-09-19T05:27:56.596Z,15.60
2017-09-19T05:30:25.613Z,17.47
2017-09-19T05:32:53.863Z,20.87
2017-09-19T05:35:22.119Z,21.77
2017-09-19T05:37:50.371Z,18.23
2017-09-19T05:40:18.635Z,20.37
2017-09-19T05:42:46.878Z,16.97
2017-09-19T05:45:15.140Z,20.03
2017-09-19T05:47:43.442Z,15.40
2017-09-19T05:50:12.451Z,15.57
2017-09-19T05:52:40.702Z,13.67
2017-09-19T05:55:08.959Z,14.57
2017-09-19T05:57:37.973Z,15.37
2017-09-19T06:00:06.227Z,14.70
2017-09-19T06:02:35.251Z,15.90
2017-09-19T06:05:03.502Z,14.87
2017-09-19T06:07:32.520Z,15.90
2017-09-19T06:10:00.775Z,17.10
2017-09-19T06:12:29.023Z,16.80
2017-09-19T06:14:57.287Z,18.03
2017-09-19T06:17:25.530Z,18.13
2017-09-19T06:19:53.783Z,16.90
2017-09-19T06:22:22.030Z,18.23
2017-09-19T06:24:50.293Z,16.77
2017-09-19T06:27:18.542Z,13.93
2017-09-19T06:29:46.794Z,13.90
2017-09-19T06:32:15.038Z,14.23
2017-09-19T06:34:43.291Z,11.90
2017-09-19T06:37:11.541Z,11.93
2017-09-19T06:39:40.564Z,12.77
2017-09-19T06:42:08.814Z,12.43
2017-09-19T06:44:37.825Z,12.33
2017-09-19T06:47:06.082Z,9.80
2017-09-19T06:49:35.104Z,9.13
2017-09-19T06:52:03.381Z,12.23
2017-09-19T06:54:31.629Z,12.73
2017-09-19T06:57:00.658Z,10.73
2017-09-19T06:59:28.909Z,12.20
2017-09-19T07:01:57.167Z,10.40
2017-09-19T07:04:26.186Z,11.17
2017-09-19T07:06:54.437Z,11.33
2017-09-19T07:09:23.456Z,9.30
2017-09-19T07:11:51.712Z,9.80
2017-09-19T07:14:20.727Z,8.20
2017-09-19T07:16:48.983Z,9.20
2017-09-19T07:19:18.007Z,9.13
2017-09-19T07:21:46.263Z,9.60
2017-09-19T07:24:14.523Z,9.00
2017-09-19T07:26:43.538Z,8.97
2017-09-19T07:29:11.792Z,8.70
2017-09-19T07:31:40.286Z,8.40
2017-09-19T07:34:08.547Z,7.40
2017-09-19T07:36:37.571Z,8.10
2017-09-19T07:39:05.823Z,8.60
2017-09-19T07:41:34.082Z,8.47
2017-09-19T07:44:03.111Z,9.50
2017-09-19T07:46:31.388Z,9.10
2017-09-19T07:48:59.651Z,9.67
2017-09-19T07:51:27.907Z,8.70
2017-09-19T07:53:56.923Z,8.90
2017-09-19T07:56:25.187Z,8.90
2017-09-19T07:58:54.201Z,9.10
2017-09-19T08:01:22.462Z,11.93
2017-09-19T08:03:50.723Z,9.20
2017-09-19T08:06:19.750Z,8.93
2017-09-19T08:08:48.001Z,9.17
2017-09-19T08:11:16.261Z,9.90
2017-09-19T08:13:45.274Z,9.93
2017-09-19T08:16:13.538Z,7.80
2017-09-19T08:18:42.557Z,8.10
2017-09-19T08:21:10.819Z,7.47
2017-09-19T08:23:39.076Z,7.97
2017-09-19T08:26:08.152Z,7.20
2017-09-19T08:28:36.406Z,8.30
2017-09-19T08:31:04.678Z,8.73
2017-09-19T08:33:32.934Z,8.40
2017-09-19T08:36:01.227Z,8.17
2017-09-19T08:38:29.484Z,7.27
2017-09-19T08:40:57.738Z,6.20
2017-09-19T08:43:26.023Z,6.70
2017-09-19T08:45:54.274Z,7.57
2017-09-19T08:48:23.300Z,6.43
2017-09-19T08:50:51.555Z,5.90
2017-09-19T08:53:20.578Z,6.97
2017-09-19T08:55:48.838Z,6.50
2017-09-19T08:58:17.091Z,6.97
2017-09-19T09:00:46.116Z,7.10
2017-09-19T09:03:14.363Z,7.00
2017-09-19T09:05:43.390Z,6.97
2017-09-19T09:08:11.643Z,7.00
2017-09-19T09:10:39.899Z,6.37
2017-09-19T09:13:08.910Z,6.10
2017-09-19T09:15:37.166Z,6.30
2017-09-19T09:18:06.191Z,6.00
2017-09-19T09:20:34.455Z,5.10
2017-09-19T09:23:02.706Z,5.40
2017-09-19T09:25:31.737Z,5.30
2017-09-19T09:27:59.993Z,5.67
2017-09-19T09:30:29.009Z,5.30
2017-09-19T09:32:57.255Z,5.20
2017-09-19T09:35:26.283Z,6.13
2017-09-19T09:37:54.538Z,5.87
2017-09-19T09:40:22.795Z,5.80
2017-09-19T09:42:51.818Z,5.40
2017-09-19T09:45:20.079Z,5.13
2017-09-19T09:47:48.329Z,5.27
2017-09-19T09:50:16.583Z,4.37
2017-09-19T09:52:44.835Z,4.47
2017-09-19T09:55:13.094Z,4.37
2017-09-19T09:57:41.338Z,4.13
2017-09-19T10:00:10.358Z,4.63
2017-09-19T10:02:38.610Z,4.37
2017-09-19T10:05:07.624Z,4.50
2017-09-19T10:07:35.872Z,4.17
2017-09-19T10:10:04.144Z,4.70
2017-09-19T10:12:32.385Z,3.70
2017-09-19T10:15:00.627Z,3.60
2017-09-19T10:17:28.879Z,4.07
2017-09-19T10:19:57.889Z,3.70
2017-09-19T10:22:26.142Z,4.07
2017-09-19T10:24:55.155Z,3.97
2017-09-19T10:27:24.177Z,3.63
2017-09-19T10:29:52.422Z,3.13
2017-09-19T10:32:21.451Z,3.10
2017-09-19T10:34:49.707Z,2.80
2017-09-19T10:37:17.973Z,3.60
2017-09-19T10:39:46.230Z,3.77
2017-09-19T10:42:15.263Z,3.43
2017-09-19T10:44:43.495Z,3.70
2017-09-19T10:47:12.526Z,3.43
2017-09-19T10:49:40.759Z,4.53
2017-09-19T10:52:09.784Z,4.10
2017-09-19T10:54:38.027Z,3.80
2017-09-19T10:57:06.295Z,3.80
2017-09-19T10:59:35.313Z,3.50
2017-09-19T11:02:04.319Z,3.50
2017-09-19T11:04:32.571Z,3.60
2017-09-19T11:07:01.596Z,3.43
2017-09-19T11:09:29.855Z,3.70
2017-09-19T11:11:58.864Z,3.60
2017-09-19T11:14:27.124Z,3.17
2017-09-19T11:16:56.154Z,3.30
2017-09-19T11:19:24.406Z,2.80
2017-09-19T11:21:52.654Z,3.63
2017-09-19T11:24:21.672Z,2.70
2017-09-19T11:26:49.922Z,3.10
2017-09-19T11:29:18.956Z,3.43
2017-09-19T11:31:47.455Z,3.87
2017-09-19T11:34:15.697Z,3.70
2017-09-19T11:36:43.955Z,4.23
2017-09-19T11:39:12.963Z,3.47
2017-09-19T11:41:41.215Z,4.00
2017-09-19T11:44:10.241Z,3.10
2017-09-19T11:46:38.499Z,3.30
2017-09-19T11:49:06.774Z,3.57
2017-09-19T11:51:35.012Z,3.97
2017-09-19T11:54:03.268Z,2.90
2017-09-19T11:56:31.524Z,3.47
2017-09-19T11:58:59.776Z,4.17
2017-09-19T12:01:28.024Z,4.30
2017-09-19T12:03:57.045Z,4.03
2017-09-19T12:06:25.294Z,4.30
2017-09-19T12:08:53.539Z,3.77
2017-09-19T12:11:21.805Z,4.20
2017-09-19T12:13:50.055Z,3.13
2017-09-19T12:16:18.311Z,3.20
2017-09-19T12:18:47.330Z,3.50
2017-09-19T12:21:15.584Z,3.70
2017-09-19T12:23:44.600Z,3.20
2017-09-19T12:26:12.857Z,3.07
2017-09-19T12:28:41.109Z,3.90
2017-09-19T12:31:09.356Z,3.97
2017-09-19T12:33:37.614Z,2.83
2017-09-19T12:36:05.871Z,3.13
2017-09-19T12:38:34.129Z,3.10
2017-09-19T12:41:03.146Z,2.53
2017-09-19T12:43:31.393Z,3.20
2017-09-19T12:46:00.412Z,3.00
2017-09-19T12:48:28.657Z,2.90
2017-09-19T12:50:57.686Z,2.33
2017-09-19T12:53:25.931Z,2.50
2017-09-19T12:55:54.951Z,2.97
2017-09-19T12:58:23.224Z,3.63
2017-09-19T13:00:51.481Z,3.20
2017-09-19T13:03:20.488Z,3.63
2017-09-19T13:05:48.743Z,3.50
2017-09-19T13:08:16.987Z,2.50
2017-09-19T13:10:45.241Z,3.30
2017-09-19T13:13:13.489Z,2.83
2017-09-19T13:15:41.753Z,3.10
2017-09-19T13:18:10.002Z,3.03
2017-09-19T13:20:38.260Z,4.10
2017-09-19T13:23:06.518Z,3.30
2017-09-19T13:25:34.756Z,3.43
2017-09-19T13:28:03.015Z,3.03
2017-09-19T13:30:32.031Z,3.00
2017-09-19T13:33:17.986Z,3.70
2017-09-19T13:35:46.230Z,2.90
2017-09-19T13:38:14.495Z,2.37
2017-09-19T13:40:42.744Z,3.17
2017-09-19T13:43:11.000Z,2.47
2017-09-19T13:45:39.246Z,2.10
2017-09-19T13:48:07.513Z,1.90
2017-09-19T13:50:35.772Z,2.33
2017-09-19T13:53:04.038Z,2.33
2017-09-19T13:55:32.296Z,2.00
2017-09-19T13:58:00.548Z,2.33
2017-09-19T14:00:29.580Z,2.30
2017-09-19T14:02:57.844Z,2.23
2017-09-19T14:05:26.106Z,2.60
2017-09-19T14:07:55.120Z,2.17
2017-09-19T14:10:23.374Z,2.00
2017-09-19T14:12:52.401Z,1.83
2017-09-19T14:15:20.665Z,1.67
2017-09-19T14:17:48.902Z,1.63
2017-09-19T14:20:17.927Z,2.10
2017-09-19T14:22:46.183Z,2.10
2017-09-19T14:25:14.444Z,2.10
2017-09-19T14:27:42.694Z,1.60
2017-09-19T14:30:10.951Z,1.80
2017-09-19T14:32:39.208Z,1.93
2017-09-19T14:35:07.455Z,2.40
2017-09-19T14:37:36.480Z,2.37
2017-09-19T14:40:04.738Z,2.17
2017-09-19T14:42:33.006Z,2.37
2017-09-19T14:45:01.267Z,2.97
2017-09-19T14:47:29.522Z,2.80
2017-09-19T14:49:57.780Z,3.27
2017-09-19T14:52:26.033Z,2.40
2017-09-19T14:54:54.274Z,1.87
2017-09-19T14:57:23.291Z,1.77
2017-09-19T14:59:51.547Z,2.67
2017-09-19T15:02:20.568Z,1.80
2017-09-19T15:04:48.814Z,1.67
2017-09-19T15:07:17.836Z,2.40
2017-09-19T15:09:46.089Z,1.77
2017-09-19T15:12:14.360Z,3.23
2017-09-19T15:14:42.607Z,2.80
2017-09-19T15:17:10.863Z,2.87
2017-09-19T15:19:39.113Z,2.90
2017-09-19T15:22:07.377Z,2.50
2017-09-19T15:24:35.626Z,2.50
2017-09-19T15:27:03.871Z,3.40
2017-09-19T15:29:32.132Z,2.63
2017-09-19T15:32:00.383Z,2.77
2017-09-19T15:34:28.644Z,2.60
2017-09-19T15:36:57.684Z,2.50
2017-09-19T15:39:25.920Z,3.77
2017-09-19T15:41:54.163Z,4.63
2017-09-19T15:44:22.420Z,3.23
2017-09-19T15:46:50.690Z,16.30
2017-09-19T15:49:18.961Z,2.70
2017-09-19T15:51:47.212Z,2.70
2017-09-19T15:54:15.588Z,2.30
2017-09-19T15:56:43.831Z,2.30
2017-09-19T15:59:12.859Z,2.30
2017-09-19T16:01:41.115Z,3.03
2017-09-19T16:04:10.137Z,2.10
2017-09-19T16:06:38.400Z,2.40
2017-09-19T16:09:06.657Z,2.30
2017-09-19T16:11:35.678Z,2.37
2017-09-19T16:14:03.924Z,2.07
2017-09-19T16:16:32.946Z,2.43
2017-09-19T16:19:01.203Z,2.67
2017-09-19T16:21:29.470Z,2.57
2017-09-19T16:23:58.484Z,1.90
2017-09-19T16:26:26.735Z,2.30
2017-09-19T16:28:55.754Z,2.50
2017-09-19T16:31:24.017Z,2.57
2017-09-19T16:33:52.277Z,4.10
2017-09-19T16:36:21.293Z,3.63
2017-09-19T16:38:49.553Z,2.67
2017-09-19T16:41:17.812Z,2.70
2017-09-19T16:43:46.075Z,2.50
2017-09-19T16:46:14.336Z,2.20
2017-09-19T16:48:42.600Z,2.40
2017-09-19T16:51:10.855Z,15.87
2017-09-19T16:53:39.119Z,5.50
2017-09-19T16:56:07.379Z,2.77
2017-09-19T16:58:35.642Z,3.40
2017-09-19T17:01:04.658Z,2.70
2017-09-19T17:03:32.936Z,2.87
2017-09-19T17:06:01.194Z,2.53
2017-09-19T17:08:30.221Z,3.17
2017-09-19T17:10:58.465Z,3.60
2017-09-19T17:13:26.722Z,2.90
2017-09-19T17:15:55.738Z,3.00
2017-09-19T17:18:24.006Z,3.40
2017-09-19T17:20:53.029Z,2.63
2017-09-19T17:23:21.287Z,2.87
2017-09-19T17:25:49.551Z,2.70
2017-09-19T17:28:18.572Z,2.60
2017-09-19T17:30:46.828Z,3.90
2017-09-19T17:33:15.090Z,2.67
2017-09-19T17:35:44.117Z,2.50
2017-09-19T17:38:12.374Z,2.90
2017-09-19T17:40:40.638Z,2.97
2017-09-19T17:43:09.667Z,2.60
2017-09-19T17:45:46.294Z,2.83
2017-09-19T17:48:15.329Z,2.87
2017-09-19T17:50:43.591Z,3.37
2017-09-19T17:53:11.864Z,3.77
2017-09-19T17:55:40.137Z,3.53
2017-09-19T17:58:08.403Z,4.40
2017-09-19T18:00:36.669Z,2.90
2017-09-19T18:03:04.947Z,3.57
2017-09-19T18:05:33.976Z,3.60
2017-09-19T18:08:02.255Z,3.83
2017-09-19T18:10:30.498Z,3.90
2017-09-19T18:12:59.658Z,3.90
2017-09-19T18:15:27.937Z,5.77
2017-09-19T18:17:56.208Z,3.97
2017-09-19T18:20:24.463Z,3.50
2017-09-19T18:22:52.733Z,3.60
2017-09-19T18:25:20.983Z,4.10
2017-09-19T18:27:49.456Z,3.90
2017-09-19T18:30:18.051Z,3.37
2017-09-19T18:32:46.318Z,3.20
2017-09-19T18:35:14.591Z,3.20
2017-09-19T18:37:42.856Z,3.03
2017-09-19T18:40:11.128Z,3.63
2017-09-19T18:42:40.164Z,3.87
2017-09-19T18:45:08.419Z,3.33
2017-09-19T18:47:36.692Z,3.37
2017-09-19T18:50:04.950Z,4.03
2017-09-19T18:52:34.198Z,3.50
2017-09-19T18:55:02.443Z,4.40
2017-09-19T18:57:30.712Z,5.00
2017-09-19T18:59:59.726Z,3.90
2017-09-19T19:02:27.982Z,4.80
2017-09-19T19:04:56.243Z,4.60
2017-09-19T19:07:25.286Z,4.67
2017-09-19T19:09:53.557Z,4.70
2017-09-19T19:12:21.857Z,5.73
2017-09-19T19:14:50.150Z,6.40
2017-09-19T19:17:18.435Z,5.70
2017-09-19T19:19:47.468Z,60.80
2017-09-19T19:22:15.752Z,5.63
2017-09-19T19:24:44.075Z,6.53
2017-09-19T19:27:12.596Z,6.23
2017-09-19T19:29:40.984Z,7.37
2017-09-19T19:32:10.239Z,6.63
2017-09-19T19:34:38.495Z,5.30
2017-09-19T19:37:06.805Z,5.20
2017-09-19T19:39:35.887Z,5.33
2017-09-19T19:42:04.979Z,5.13
2017-09-19T19:44:33.235Z,4.50
2017-09-19T19:47:02.314Z,4.90
2017-09-19T19:49:30.749Z,4.80
2017-09-19T19:51:59.776Z,4.33
2017-09-19T19:54:28.031Z,5.27
2017-09-19T19:56:56.326Z,4.70
2017-09-19T19:59:24.640Z,4.80
2017-09-19T20:01:52.939Z,5.10
2017-09-19T20:04:21.210Z,5.23
2017-09-19T20:06:49.470Z,7.07
2017-09-19T20:09:17.875Z,5.37
2017-09-19T20:11:46.898Z,5.40
2017-09-19T20:14:15.209Z,5.80
2017-09-19T20:16:43.592Z,6.20
2017-09-19T20:19:13.457Z,5.60
2017-09-19T20:21:41.720Z,5.50
2017-09-19T20:24:09.983Z,6.20
2017-09-19T20:26:39.004Z,6.03
2017-09-19T20:29:07.274Z,6.03
2017-09-19T20:31:35.531Z,5.80
2017-09-19T20:34:03.804Z,5.80
2017-09-19T20:36:32.839Z,6.03
2017-09-19T20:39:01.096Z,5.33
2017-09-19T20:41:29.355Z,5.03
2017-09-19T20:43:58.375Z,4.87
2017-09-19T20:46:26.626Z,4.87
2017-09-19T20:48:54.891Z,5.00
2017-09-19T20:51:23.908Z,5.23
2017-09-19T20:53:52.178Z,5.60
2017-09-19T20:56:20.428Z,5.07
2017-09-19T20:58:49.452Z,5.50
2017-09-19T21:01:17.705Z,4.37
2017-09-19T21:03:52.082Z,5.40
2017-09-19T21:06:25.917Z,4.50
2017-09-19T21:09:00.404Z,5.20
2017-09-19T21:11:34.033Z,5.13
2017-09-19T21:14:07.907Z,6.13
2017-09-19T21:16:41.737Z,4.97
2017-09-19T21:19:15.662Z,5.03
2017-09-19T21:21:43.919Z,4.53
2017-09-19T21:24:12.193Z,5.70
2017-09-19T21:26:40.441Z,5.50
2017-09-19T21:29:08.698Z,5.23
2017-09-19T21:31:36.956Z,4.70
2017-09-19T21:34:05.984Z,4.80
2017-09-19T21:36:34.230Z,4.93
2017-09-19T21:39:02.486Z,4.40
2017-09-19T21:41:31.513Z,5.33
2017-09-19T21:43:59.769Z,5.43
2017-09-19T21:46:28.024Z,5.20
2017-09-19T21:48:56.284Z,5.33
2017-09-19T21:51:24.539Z,4.90
2017-09-19T21:53:52.799Z,5.50
2017-09-19T21:56:21.056Z,5.07
2017-09-19T21:58:49.316Z,4.97
2017-09-19T22:01:17.569Z,4.67
2017-09-19T22:03:45.833Z,5.10
2017-09-19T22:06:14.088Z,4.50
2017-09-19T22:08:42.348Z,5.20
2017-09-19T22:11:10.599Z,4.80
2017-09-19T22:13:38.855Z,4.77
2017-09-19T22:16:07.883Z,5.50
2017-09-19T22:18:36.149Z,6.60
2017-09-19T22:21:04.410Z,4.93
2017-09-19T22:23:33.424Z,5.00
2017-09-19T22:26:01.702Z,5.50
2017-09-19T22:28:29.956Z,5.13
2017-09-19T22:30:58.996Z,5.63
2017-09-19T22:33:27.253Z,6.03
2017-09-19T22:35:55.508Z,6.10
2017-09-19T22:38:23.760Z,5.10
2017-09-19T22:40:52.022Z,5.80
2017-09-19T22:43:20.299Z,6.30
2017-09-19T22:45:48.550Z,6.30
2017-09-19T22:48:16.808Z,5.67
2017-09-19T22:50:45.067Z,4.93
2017-09-19T22:53:13.326Z,5.43
2017-09-19T22:55:42.352Z,6.03
2017-09-19T22:58:10.594Z,6.57
2017-09-19T23:00:39.623Z,6.60
2017-09-19T23:03:07.870Z,6.80
2017-09-19T23:05:36.134Z,7.43
2017-09-19T23:08:05.150Z,6.37
2017-09-19T23:10:33.416Z,8.43
2017-09-19T23:13:01.675Z,8.30
2017-09-19T23:15:30.703Z,8.57
2017-09-19T23:17:58.959Z,8.10
2017-09-19T23:20:27.226Z,8.37
2017-09-19T23:22:56.251Z,9.00
2017-09-19T23:25:24.512Z,9.50
2017-09-19T23:27:52.774Z,10.13
2017-09-19T23:30:21.043Z,12.40
2017-09-19T23:32:50.071Z,10.03
2017-09-19T23:35:18.334Z,10.57
2017-09-19T23:37:46.595Z,10.47
2017-09-19T23:40:14.858Z,9.90
2017-09-19T23:42:43.890Z,11.23
2017-09-19T23:45:12.151Z,11.00
2017-09-19T23:47:40.406Z,11.77
2017-09-19T23:50:09.434Z,11.60
2017-09-19T23:52:37.691Z,9.40
2017-09-19T23:55:05.951Z,11.20
2017-09-19T23:57:34.975Z,11.90
